カラカス の空港の天気 - METARとTAF

シモン・ボリバー空港(バルガス) ( SVMI / CCS ) - ベネズエラ バルガス州、Maiquetia (カラカス近郊)
飛行場実況気象(Metar)
観測時間05/20 00:00 VET (05/20 04:00 UTC)
風向・風速静穏 0m/s
視程10km以上
天気現象
全天の4割程度の雲 雲底高度 490m
気温24℃
湿度89%
気圧1013hPa
METARSVMI 200400Z 00000KT 9999 SCT016 24/22 Q1013
過去の天気等 Google飛行場航空写真 Wunderground天気予報

過去48時間のMETAR

飛行場予報(TAF)
発表時間: 5/19 18:00 VET (5/19 22:00 UTC)
予報対象時間: 19日20時 VET ~ 20日20時 VET
風向・風速東北東 4m/s
視程10km以上
全天の4割程度の雲 雲底高度 490m
11日20時 VET ~ 12日1時 VET に徐々に
風向・風速東 3m/s
視程10km以上
全天の4割程度の雲 雲底高度 490m
TAF SVMI 192200Z 2000/2100 06007KT 9999 SCT016 TX33/2018Z TN24/2007Z
BECMG 1200/1205 09005KT 9999 SCT016